Time;durP1;ratioP1;P1;durP2;ratioP2;P2;SDS_P1;SDS_P2;PMS_P1;PMS_P2;Temp;Humidity;BMP_temperature;BMP_pressure;BME280_temperature;BME280_humidity;BME280_pressure;Samples;Min_cycle;Max_cycle;Signal;HPM_P1;HPM_P2
2022/03/07 00:02:13;;;;;;;3.22;2.90;;;;;;;;;;10618824;27;20043;-61
2022/03/07 00:07:13;;;;;;;8.63;3.33;;;;;;;;;;10622178;27;20399;-62
2022/03/07 00:12:14;;;;;;;4.73;3.20;;;;;;;;;;10621364;27;20477;-61
2022/03/07 00:17:14;;;;;;;4.33;3.10;;;;;;;;;;10620865;27;20447;-61
2022/03/07 00:22:14;;;;;;;5.60;2.87;;;;;;;;;;10620360;27;20065;-61
2022/03/07 00:27:15;;;;;;;4.22;2.92;;;;;;;;;;10621239;27;20463;-62
2022/03/07 00:32:15;;;;;;;4.17;3.07;;;;;;;;;;10620274;27;20019;-61
2022/03/07 00:37:15;;;;;;;5.33;3.37;;;;;;;;;;10619923;27;20761;-61
2022/03/07 00:42:16;;;;;;;3.87;2.90;;;;;;;;;;10620294;27;20427;-61
2022/03/07 00:47:16;;;;;;;3.23;2.83;;;;;;;;;;10619584;27;20038;-61
2022/03/07 00:52:17;;;;;;;3.43;2.77;;;;;;;;;;10620155;27;20034;-61
2022/03/07 00:57:17;;;;;;;4.32;2.90;;;;;;;;;;10619327;27;20522;-62
2022/03/07 01:02:17;;;;;;;3.23;2.93;;;;;;;;;;10615376;27;20020;-62
2022/03/07 01:07:18;;;;;;;10.20;2.77;;;;;;;;;;10618728;27;20467;-62
2022/03/07 01:12:18;;;;;;;4.32;3.08;;;;;;;;;;10615838;27;20106;-62
2022/03/07 01:17:19;;;;;;;4.10;3.13;;;;;;;;;;10618383;27;20054;-62
2022/03/07 01:22:19;;;;;;;5.35;2.80;;;;;;;;;;10619366;27;20027;-62
2022/03/07 01:27:20;;;;;;;4.03;2.90;;;;;;;;;;10617927;27;20474;-62
2022/03/07 01:32:20;;;;;;;3.92;2.95;;;;;;;;;;10617315;27;20553;-61
2022/03/07 01:37:21;;;;;;;4.22;2.88;;;;;;;;;;10618344;27;20047;-63
2022/03/07 01:42:21;;;;;;;7.43;3.00;;;;;;;;;;10617708;27;20026;-61
2022/03/07 01:47:23;;;;;;;5.35;2.90;;;;;;;;;;10617307;27;20867;-62
2022/03/07 01:52:24;;;;;;;3.58;3.00;;;;;;;;;;10617907;27;20025;-61
2022/03/07 01:57:24;;;;;;;3.23;2.93;;;;;;;;;;10617435;27;20347;-61
2022/03/07 02:02:25;;;;;;;4.20;3.30;;;;;;;;;;10598761;28;20474;-62
2022/03/07 02:07:25;;;;;;;3.10;2.80;;;;;;;;;;10616930;27;20019;-62
2022/03/07 02:12:25;;;;;;;4.30;2.60;;;;;;;;;;10613798;28;20526;-62
2022/03/07 02:17:26;;;;;;;4.63;3.00;;;;;;;;;;10613269;27;20658;-61
2022/03/07 02:22:26;;;;;;;4.30;3.03;;;;;;;;;;10617275;28;20270;-62
2022/03/07 02:27:27;;;;;;;3.60;2.60;;;;;;;;;;10616608;27;20027;-62
2022/03/07 02:32:27;;;;;;;3.92;2.83;;;;;;;;;;10616272;28;20491;-62
2022/03/07 02:37:28;;;;;;;3.20;2.55;;;;;;;;;;10616109;27;20088;-63
2022/03/07 02:42:28;;;;;;;3.78;2.63;;;;;;;;;;10617067;27;20030;-62
2022/03/07 02:47:28;;;;;;;3.65;2.97;;;;;;;;;;10624970;27;20027;-62
2022/03/07 02:52:29;;;;;;;4.85;2.92;;;;;;;;;;10624611;27;20031;-62
2022/03/07 02:57:29;;;;;;;3.00;2.70;;;;;;;;;;10623947;27;20027;-62
2022/03/07 03:02:29;;;;;;;7.30;2.87;;;;;;;;;;10623901;27;20471;-61
2022/03/07 03:07:30;;;;;;;3.33;2.77;;;;;;;;;;10623578;27;20031;-62
2022/03/07 03:12:30;;;;;;;3.60;2.50;;;;;;;;;;10623358;27;20122;-61
2022/03/07 03:17:31;;;;;;;3.30;2.73;;;;;;;;;;10620120;27;20811;-61
2022/03/07 03:22:32;;;;;;;3.10;2.70;;;;;;;;;;10620328;27;20480;-62
2022/03/07 03:27:32;;;;;;;3.92;2.45;;;;;;;;;;10623165;27;20453;-62
2022/03/07 03:32:33;;;;;;;3.65;2.30;;;;;;;;;;10622640;27;20033;-62
2022/03/07 03:37:33;;;;;;;3.72;2.55;;;;;;;;;;10622283;27;20058;-61
2022/03/07 03:42:34;;;;;;;3.35;2.80;;;;;;;;;;10622520;27;20054;-61
2022/03/07 03:47:42;;;;;;;3.30;2.40;;;;;;;;;;10621863;27;20466;-61
2022/03/07 03:52:42;;;;;;;3.72;2.70;;;;;;;;;;10622045;27;20542;-62
2022/03/07 03:57:44;;;;;;;3.22;2.53;;;;;;;;;;10621324;27;20015;-62
2022/03/07 04:02:46;;;;;;;3.42;2.25;;;;;;;;;;10621325;27;20378;-62
2022/03/07 04:07:46;;;;;;;3.85;2.72;;;;;;;;;;10621079;27;20527;-62
2022/03/07 04:12:47;;;;;;;2.65;2.40;;;;;;;;;;10620985;27;20080;-62
2022/03/07 04:17:47;;;;;;;4.87;2.87;;;;;;;;;;10621249;27;20034;-61
2022/03/07 04:22:47;;;;;;;3.42;2.78;;;;;;;;;;10616876;27;20462;-62
2022/03/07 04:27:48;;;;;;;3.33;2.73;;;;;;;;;;10620689;27;20374;-62
2022/03/07 04:32:48;;;;;;;3.63;2.77;;;;;;;;;;10617055;27;20459;-63
2022/03/07 04:37:49;;;;;;;4.53;2.63;;;;;;;;;;10620111;27;20043;-62
2022/03/07 04:42:49;;;;;;;2.97;2.33;;;;;;;;;;10620062;27;20447;-62
2022/03/07 04:47:50;;;;;;;3.72;2.67;;;;;;;;;;10619565;27;20023;-62
2022/03/07 04:52:50;;;;;;;3.33;2.25;;;;;;;;;;10619780;27;20114;-63
2022/03/07 04:57:50;;;;;;;2.70;2.40;;;;;;;;;;10619083;27;20027;-63
2022/03/07 05:02:51;;;;;;;3.30;2.67;;;;;;;;;;10618842;27;21046;-63
2022/03/07 05:07:52;;;;;;;3.17;2.50;;;;;;;;;;10599248;27;20638;-63
2022/03/07 05:12:53;;;;;;;3.22;2.53;;;;;;;;;;10618558;27;20054;-63
2022/03/07 05:17:54;;;;;;;3.80;2.50;;;;;;;;;;10618343;27;20057;-63
2022/03/07 05:22:54;;;;;;;2.70;2.15;;;;;;;;;;10618564;27;20528;-63
2022/03/07 05:27:55;;;;;;;3.80;2.60;;;;;;;;;;10617839;27;20023;-63
2022/03/07 05:32:55;;;;;;;3.38;2.42;;;;;;;;;;10596098;27;20180;-63
2022/03/07 05:37:56;;;;;;;3.45;2.20;;;;;;;;;;10617511;27;20067;-63
2022/03/07 05:42:56;;;;;;;3.10;2.38;;;;;;;;;;10614336;27;20592;-63
2022/03/07 05:47:57;;;;;;;3.23;2.63;;;;;;;;;;10617762;27;20020;-63
2022/03/07 05:52:57;;;;;;;2.50;2.30;;;;;;;;;;10617298;27;20479;-63
2022/03/07 05:58:00;;;;;;;3.13;2.50;;;;;;;;;;10617056;27;20542;-63
2022/03/07 06:03:00;;;;;;;2.90;2.60;;;;;;;;;;10617289;28;20020;-63
2022/03/07 06:08:00;;;;;;;3.80;2.50;;;;;;;;;;10616912;27;20019;-63
2022/03/07 06:13:01;;;;;;;2.78;2.38;;;;;;;;;;10616842;28;20515;-63
2022/03/07 06:18:02;;;;;;;2.90;2.42;;;;;;;;;;10618675;27;20023;-63
2022/03/07 06:23:04;;;;;;;2.60;2.40;;;;;;;;;;10624991;27;20023;-62
2022/03/07 06:28:05;;;;;;;2.45;2.25;;;;;;;;;;10625426;27;20023;-62
2022/03/07 06:33:05;;;;;;;3.05;2.47;;;;;;;;;;10624997;27;20534;-62
2022/03/07 06:38:06;;;;;;;2.30;2.10;;;;;;;;;;10622932;27;20043;-63
2022/03/07 06:43:06;;;;;;;2.95;2.33;;;;;;;;;;10602624;27;20961;-62
2022/03/07 06:48:09;;;;;;;9.07;3.00;;;;;;;;;;10624850;27;20596;-63
2022/03/07 06:53:09;;;;;;;6.65;3.35;;;;;;;;;;10624178;27;20055;-66
2022/03/07 06:58:10;;;;;;;11.10;3.23;;;;;;;;;;10605778;27;20059;-66
2022/03/07 07:03:10;;;;;;;11.13;3.67;;;;;;;;;;10623978;27;20921;-62
2022/03/07 07:08:11;;;;;;;6.15;3.83;;;;;;;;;;10624416;27;20457;-65
2022/03/07 07:13:14;;;;;;;11.32;3.83;;;;;;;;;;10623200;27;20493;-66
2022/03/07 07:18:14;;;;;;;18.80;4.22;;;;;;;;;;10624183;27;20034;-69
2022/03/07 07:23:14;;;;;;;15.37;4.50;;;;;;;;;;10623396;27;20023;-65
2022/03/07 07:28:15;;;;;;;18.03;4.87;;;;;;;;;;10622134;27;20432;-64
2022/03/07 07:33:15;;;;;;;21.60;4.60;;;;;;;;;;10618792;27;20126;-66
2022/03/07 07:38:19;;;;;;;20.57;4.70;;;;;;;;;;10619973;27;20505;-65
2022/03/07 07:43:24;;;;;;;8.35;4.25;;;;;;;;;;10617247;27;20610;-66
2022/03/07 07:48:29;;;;;;;15.23;4.78;;;;;;;;;;10618028;27;20481;-67
2022/03/07 07:53:29;;;;;;;13.30;4.72;;;;;;;;;;10621661;27;20542;-65
2022/03/07 07:58:30;;;;;;;10.00;4.60;;;;;;;;;;10621345;27;20034;-66
2022/03/07 08:03:31;;;;;;;11.18;4.25;;;;;;;;;;10620628;27;20446;-65
2022/03/07 08:08:42;;;;;;;11.02;4.28;;;;;;;;;;10620216;27;20381;-66
2022/03/07 08:13:42;;;;;;;8.77;4.50;;;;;;;;;;10621160;27;20031;-66
2022/03/07 08:18:43;;;;;;;8.02;4.78;;;;;;;;;;10620875;27;20019;-66
2022/03/07 08:23:43;;;;;;;8.63;4.20;;;;;;;;;;10620716;27;20022;-66
2022/03/07 08:28:43;;;;;;;8.53;4.63;;;;;;;;;;10619863;27;20489;-65
2022/03/07 08:33:44;;;;;;;14.93;4.77;;;;;;;;;;10619956;27;20193;-66
2022/03/07 08:38:44;;;;;;;9.43;4.90;;;;;;;;;;10619676;27;20042;-66
2022/03/07 08:43:45;;;;;;;9.83;4.83;;;;;;;;;;10619549;27;20490;-66
2022/03/07 08:48:46;;;;;;;8.10;4.63;;;;;;;;;;10615709;27;20502;-66
2022/03/07 08:53:46;;;;;;;9.27;4.72;;;;;;;;;;10615484;27;20083;-65
2022/03/07 08:58:47;;;;;;;8.25;4.82;;;;;;;;;;10618358;27;20022;-64
2022/03/07 09:03:48;;;;;;;11.77;4.90;;;;;;;;;;10618081;27;20498;-65
2022/03/07 09:08:49;;;;;;;10.70;4.47;;;;;;;;;;10618595;27;20094;-66
2022/03/07 09:13:49;;;;;;;9.03;4.17;;;;;;;;;;10617964;27;20046;-66
2022/03/07 09:18:49;;;;;;;6.63;4.47;;;;;;;;;;10618717;27;20451;-65
2022/03/07 09:23:50;;;;;;;7.27;4.70;;;;;;;;;;10618098;27;20355;-66
2022/03/07 09:28:50;;;;;;;7.65;4.47;;;;;;;;;;10618464;27;20527;-66
2022/03/07 09:33:51;;;;;;;8.43;4.35;;;;;;;;;;10617246;27;20495;-66
2022/03/07 09:38:51;;;;;;;7.68;4.65;;;;;;;;;;10616209;27;20066;-66
2022/03/07 09:43:51;;;;;;;14.05;5.15;;;;;;;;;;10617020;27;20050;-66
2022/03/07 09:48:53;;;;;;;8.73;4.67;;;;;;;;;;10616806;27;20474;-66
2022/03/07 09:53:53;;;;;;;7.68;4.65;;;;;;;;;;10612603;27;20424;-66
2022/03/07 09:58:54;;;;;;;11.98;5.28;;;;;;;;;;10611540;27;20023;-66
2022/03/07 10:04:08;;;;;;;5.90;4.50;;;;;;;;;;10616155;28;20034;-66
2022/03/07 10:09:08;;;;;;;8.52;5.25;;;;;;;;;;10617266;27;20459;-66
2022/03/07 10:14:08;;;;;;;8.47;4.67;;;;;;;;;;10617857;28;20481;-66
2022/03/07 10:19:12;;;;;;;6.80;4.67;;;;;;;;;;10617479;27;20608;-65
2022/03/07 10:24:12;;;;;;;6.53;4.50;;;;;;;;;;10617133;28;20027;-66
2022/03/07 10:29:13;;;;;;;7.85;4.60;;;;;;;;;;10616978;27;20046;-66
2022/03/07 10:34:13;;;;;;;7.47;4.93;;;;;;;;;;10616234;28;20026;-66
2022/03/07 10:39:22;;;;;;;7.35;5.18;;;;;;;;;;10616128;27;20122;-66
2022/03/07 10:44:27;;;;;;;6.88;4.82;;;;;;;;;;10617046;28;20030;-66
2022/03/07 10:49:27;;;;;;;7.40;5.03;;;;;;;;;;10615992;27;20084;-66
2022/03/07 10:54:28;;;;;;;6.73;4.80;;;;;;;;;;10615796;28;20080;-66
2022/03/07 10:59:30;;;;;;;7.63;4.90;;;;;;;;;;10612977;27;20786;-66
2022/03/07 11:04:31;;;;;;;5.97;4.63;;;;;;;;;;10615184;27;20076;-66
2022/03/07 11:09:32;;;;;;;5.50;4.70;;;;;;;;;;10623616;27;20060;-66
2022/03/07 11:14:36;;;;;;;7.93;4.72;;;;;;;;;;10623935;27;20016;-66
2022/03/07 11:19:37;;;;;;;5.80;4.65;;;;;;;;;;10623270;27;20047;-66
2022/03/07 11:24:38;;;;;;;7.20;5.00;;;;;;;;;;10604112;27;20070;-66
2022/03/07 11:29:40;;;;;;;6.97;4.78;;;;;;;;;;10603854;27;20024;-66
2022/03/07 11:34:55;;;;;;;5.68;4.55;;;;;;;;;;10622494;27;20023;-66
2022/03/07 11:39:58;;;;;;;6.15;4.65;;;;;;;;;;10621781;27;20509;-66
2022/03/07 11:45:07;;;;;;;7.22;5.00;;;;;;;;;;10622036;27;20095;-65
2022/03/07 11:50:08;;;;;;;6.03;4.53;;;;;;;;;;10602977;27;20023;-66
2022/03/07 11:55:16;;;;;;;6.40;4.60;;;;;;;;;;10621275;27;20291;-66
2022/03/07 12:00:22;;;;;;;6.85;4.40;;;;;;;;;;10621099;27;20031;-66
2022/03/07 12:05:29;;;;;;;7.40;4.50;;;;;;;;;;10615444;27;20031;-66
2022/03/07 12:10:29;;;;;;;8.23;4.97;;;;;;;;;;10621421;27;20100;-66
2022/03/07 12:15:29;;;;;;;6.27;4.50;;;;;;;;;;10620623;27;20466;-65
2022/03/07 12:20:30;;;;;;;6.93;4.70;;;;;;;;;;10620252;27;20449;-67
2022/03/07 12:25:32;;;;;;;7.00;4.50;;;;;;;;;;10620223;27;20451;-66
2022/03/07 12:30:33;;;;;;;5.80;4.35;;;;;;;;;;10601892;27;20027;-66
2022/03/07 12:35:33;;;;;;;6.57;4.67;;;;;;;;;;10619882;27;20042;-66
2022/03/07 12:40:38;;;;;;;6.33;4.37;;;;;;;;;;10619168;27;20535;-66
2022/03/07 12:45:46;;;;;;;6.57;4.75;;;;;;;;;;10618945;27;20451;-66
2022/03/07 12:50:46;;;;;;;7.20;4.73;;;;;;;;;;10619825;27;20020;-66
2022/03/07 12:55:47;;;;;;;6.60;4.70;;;;;;;;;;10601091;27;20026;-66
2022/03/07 13:00:47;;;;;;;11.13;4.57;;;;;;;;;;10545213;22;20048;-54
2022/03/07 13:05:59;;;;;;;7.17;5.00;;;;;;;;;;10496553;28;20063;-53
2022/03/07 13:10:59;;;;;;;5.85;4.60;;;;;;;;;;10492166;28;20417;-52
2022/03/07 13:16:00;;;;;;;8.38;5.18;;;;;;;;;;10487901;28;20021;-53
2022/03/07 13:21:00;;;;;;;10.80;4.87;;;;;;;;;;10473207;28;20039;-49
2022/03/07 13:26:01;;;;;;;8.25;4.72;;;;;;;;;;10490885;28;20905;-50
2022/03/07 13:31:08;;;;;;;6.82;4.30;;;;;;;;;;10490664;28;20028;-53
2022/03/07 13:36:11;;;;;;;7.55;5.00;;;;;;;;;;10491120;28;20021;-51
2022/03/07 13:41:11;;;;;;;6.63;4.65;;;;;;;;;;10490563;28;20548;-51
2022/03/07 13:46:15;;;;;;;9.50;4.85;;;;;;;;;;10491316;28;20111;-50
2022/03/07 13:51:16;;;;;;;6.50;4.57;;;;;;;;;;10491702;28;20036;-50
2022/03/07 13:56:25;;;;;;;10.40;4.87;;;;;;;;;;10472479;28;20472;-52
2022/03/07 14:01:28;;;;;;;;;;;;;;;;;;10491051;28;20508;-52
2022/03/07 14:06:29;;;;;;;7.70;4.68;;;;;;;;;;10490258;28;19957;-53
2022/03/07 14:11:29;;;;;;;8.13;4.55;;;;;;;;;;10489433;28;20029;-52
2022/03/07 14:16:36;;;;;;;8.80;4.57;;;;;;;;;;10486658;28;20034;-51
2022/03/07 14:21:37;;;;;;;9.35;5.30;;;;;;;;;;10469129;28;20433;-55
2022/03/07 14:26:38;;;;;;;7.55;4.65;;;;;;;;;;10489356;28;20484;-55
2022/03/07 14:31:38;;;;;;;8.23;4.38;;;;;;;;;;10489190;28;20021;-53
2022/03/07 14:36:41;;;;;;;7.15;4.70;;;;;;;;;;10488997;28;20361;-53
2022/03/07 14:41:41;;;;;;;10.88;4.80;;;;;;;;;;10494945;28;20239;-55
2022/03/07 14:46:41;;;;;;;8.82;5.13;;;;;;;;;;10495755;28;20444;-54
2022/03/07 14:51:44;;;;;;;8.60;5.00;;;;;;;;;;10494364;28;20025;-53
2022/03/07 14:56:44;;;;;;;8.95;4.72;;;;;;;;;;10495800;28;21032;-53
2022/03/07 15:01:45;;;;;;;8.65;4.75;;;;;;;;;;10495300;28;20127;-63
2022/03/07 15:06:45;;;;;;;10.18;4.68;;;;;;;;;;10496065;28;20025;-55
2022/03/07 15:11:46;;;;;;;8.55;4.80;;;;;;;;;;10496625;28;20036;-52
2022/03/07 15:16:47;;;;;;;8.15;4.68;;;;;;;;;;10496355;28;20464;-57
2022/03/07 15:21:52;;;;;;;11.13;4.88;;;;;;;;;;10493109;28;20666;-52
2022/03/07 15:26:52;;;;;;;14.75;4.75;;;;;;;;;;10493650;28;20040;-53
2022/03/07 15:31:53;;;;;;;8.38;5.07;;;;;;;;;;10496240;28;20042;-53
2022/03/07 15:36:54;;;;;;;8.23;5.20;;;;;;;;;;10478337;28;20029;-53
2022/03/07 15:41:54;;;;;;;8.13;4.67;;;;;;;;;;10495750;28;20017;-55
2022/03/07 15:46:55;;;;;;;14.63;5.10;;;;;;;;;;10495163;28;20457;-60
2022/03/07 15:51:57;;;;;;;8.20;4.83;;;;;;;;;;10494349;28;20032;-51
2022/03/07 15:56:58;;;;;;;6.85;4.40;;;;;;;;;;10495382;28;20744;-57
2022/03/07 16:01:58;;;;;;;6.83;4.57;;;;;;;;;;10494867;28;20591;-53
2022/03/07 16:06:59;;;;;;;6.68;4.93;;;;;;;;;;10494431;28;20631;-52
2022/03/07 16:11:59;;;;;;;8.00;4.53;;;;;;;;;;10495362;28;20249;-52
2022/03/07 16:17:00;;;;;;;8.30;5.27;;;;;;;;;;10494957;28;20033;-51
2022/03/07 16:22:00;;;;;;;5.90;4.43;;;;;;;;;;10493781;28;20879;-54
2022/03/07 16:27:01;;;;;;;8.73;4.50;;;;;;;;;;10489836;28;20104;-55
2022/03/07 16:32:01;;;;;;;11.23;4.25;;;;;;;;;;10492142;28;20025;-55
2022/03/07 16:37:02;;;;;;;9.15;5.07;;;;;;;;;;10471419;28;20024;-53
2022/03/07 16:42:02;;;;;;;5.20;4.70;;;;;;;;;;10491328;28;20104;-51
2022/03/07 16:47:03;;;;;;;7.60;4.70;;;;;;;;;;10492474;28;20024;-54
2022/03/07 16:52:04;;;;;;;6.82;4.20;;;;;;;;;;10492891;28;20063;-54
2022/03/07 16:57:05;;;;;;;7.40;4.45;;;;;;;;;;10493113;28;20251;-55
2022/03/07 17:02:06;;;;;;;11.25;4.53;;;;;;;;;;10491202;28;20113;-53
2022/03/07 17:07:06;;;;;;;7.37;4.43;;;;;;;;;;10491708;28;20082;-54
2022/03/07 17:12:07;;;;;;;10.20;4.75;;;;;;;;;;10491487;28;20461;-59
2022/03/07 17:17:08;;;;;;;5.60;4.55;;;;;;;;;;10491222;28;20027;-54
2022/03/07 17:22:09;;;;;;;8.20;4.60;;;;;;;;;;10491128;28;20267;-54
2022/03/07 17:27:09;;;;;;;6.53;4.10;;;;;;;;;;10491885;28;20089;-62
2022/03/07 17:32:09;;;;;;;7.05;4.60;;;;;;;;;;10490629;28;20480;-52
2022/03/07 17:37:12;;;;;;;6.65;4.72;;;;;;;;;;10488381;28;20490;-55
2022/03/07 17:42:12;;;;;;;7.85;4.45;;;;;;;;;;10487664;28;20024;-55
2022/03/07 17:47:13;;;;;;;7.43;4.55;;;;;;;;;;10486094;28;20444;-56
2022/03/07 17:52:13;;;;;;;8.07;4.80;;;;;;;;;;10489231;28;20536;-56
2022/03/07 17:57:14;;;;;;;6.55;4.88;;;;;;;;;;10489201;28;20712;-59
2022/03/07 18:02:14;;;;;;;11.57;5.05;;;;;;;;;;10487403;28;20089;-56
2022/03/07 18:07:14;;;;;;;16.40;5.30;;;;;;;;;;10488454;28;20039;-53
2022/03/07 18:12:18;;;;;;;10.23;5.33;;;;;;;;;;10488963;28;20485;-54
2022/03/07 18:17:18;;;;;;;12.98;5.50;;;;;;;;;;10495849;28;20020;-55
2022/03/07 18:22:18;;;;;;;7.27;5.33;;;;;;;;;;10497099;28;20445;-55
2022/03/07 18:27:19;;;;;;;12.67;5.67;;;;;;;;;;10495440;28;20465;-55
2022/03/07 18:32:19;;;;;;;16.50;5.47;;;;;;;;;;10475834;28;20792;-54
2022/03/07 18:37:20;;;;;;;8.90;4.80;;;;;;;;;;10496754;28;20028;-55
2022/03/07 18:42:20;;;;;;;14.47;5.50;;;;;;;;;;10497026;28;20440;-55
2022/03/07 18:47:20;;;;;;;10.70;5.37;;;;;;;;;;10490619;28;20548;-58
2022/03/07 18:52:21;;;;;;;8.93;5.07;;;;;;;;;;10496709;28;20433;-55
2022/03/07 18:57:21;;;;;;;11.23;5.73;;;;;;;;;;10494084;28;20040;-55
2022/03/07 19:02:22;;;;;;;11.70;5.87;;;;;;;;;;10492627;28;20932;-54
2022/03/07 19:07:26;;;;;;;8.68;5.75;;;;;;;;;;10495284;28;20033;-55
2022/03/07 19:12:27;;;;;;;10.60;5.13;;;;;;;;;;10496084;28;20051;-55
2022/03/07 19:17:27;;;;;;;8.57;6.18;;;;;;;;;;10496223;28;20115;-55
2022/03/07 19:22:28;;;;;;;8.70;5.40;;;;;;;;;;10477114;28;20049;-54
2022/03/07 19:27:28;;;;;;;7.27;5.03;;;;;;;;;;10492466;28;20033;-55
2022/03/07 19:32:29;;;;;;;10.05;5.35;;;;;;;;;;10478123;28;20789;-54
2022/03/07 19:37:29;;;;;;;9.88;4.85;;;;;;;;;;10495262;28;20451;-60
2022/03/07 19:42:30;;;;;;;16.33;5.85;;;;;;;;;;10496035;28;20028;-53
2022/03/07 19:47:30;;;;;;;12.57;6.17;;;;;;;;;;10492054;28;20468;-57
2022/03/07 19:52:31;;;;;;;13.05;5.53;;;;;;;;;;10492579;28;20526;-57
2022/03/07 19:57:31;;;;;;;21.05;7.95;;;;;;;;;;10527411;22;20055;-59
2022/03/07 20:02:32;;;;;;;23.38;7.80;;;;;;;;;;10537008;28;20032;-60
2022/03/07 20:07:32;;;;;;;17.38;6.82;;;;;;;;;;10535677;28;20499;-60
2022/03/07 20:12:33;;;;;;;19.98;6.55;;;;;;;;;;10536548;28;20099;-59
2022/03/07 20:17:33;;;;;;;16.63;6.20;;;;;;;;;;10534835;28;20093;-60
2022/03/07 20:22:34;;;;;;;11.23;6.22;;;;;;;;;;10535101;28;20516;-59
2022/03/07 20:27:34;;;;;;;16.20;6.10;;;;;;;;;;10534914;28;20032;-59
2022/03/07 20:32:35;;;;;;;17.10;5.72;;;;;;;;;;10534544;28;20443;-61
2022/03/07 20:37:36;;;;;;;10.75;5.88;;;;;;;;;;10534430;28;20082;-61
2022/03/07 20:42:37;;;;;;;18.23;6.20;;;;;;;;;;10534400;28;20375;-61
2022/03/07 20:47:37;;;;;;;20.10;6.13;;;;;;;;;;10534735;28;20024;-60
2022/03/07 20:52:38;;;;;;;31.53;6.73;;;;;;;;;;10531104;28;20423;-61
2022/03/07 20:57:41;;;;;;;28.02;7.60;;;;;;;;;;10532438;28;20493;-61
2022/03/07 21:02:41;;;;;;;24.48;7.03;;;;;;;;;;10528943;28;20398;-61
2022/03/07 21:07:42;;;;;;;19.20;6.82;;;;;;;;;;10532328;28;20040;-61
2022/03/07 21:12:43;;;;;;;23.00;7.93;;;;;;;;;;10532606;28;20024;-61
2022/03/07 21:17:43;;;;;;;9.90;6.18;;;;;;;;;;10532852;28;20449;-61
2022/03/07 21:22:44;;;;;;;21.25;7.53;;;;;;;;;;10531037;28;20063;-61
2022/03/07 21:27:44;;;;;;;15.65;7.38;;;;;;;;;;10530654;28;20175;-61
2022/03/07 21:32:45;;;;;;;20.83;6.73;;;;;;;;;;10532693;28;20035;-61
2022/03/07 21:37:47;;;;;;;17.52;7.43;;;;;;;;;;10533034;28;20467;-61
2022/03/07 21:42:47;;;;;;;15.20;7.03;;;;;;;;;;10531676;28;20035;-61
2022/03/07 21:47:48;;;;;;;14.10;6.68;;;;;;;;;;10531250;28;20047;-61
2022/03/07 21:52:48;;;;;;;19.02;7.53;;;;;;;;;;10531740;28;20028;-61
2022/03/07 21:57:49;;;;;;;16.58;7.13;;;;;;;;;;10531466;28;20556;-61
2022/03/07 22:02:50;;;;;;;14.75;6.68;;;;;;;;;;10525444;28;20375;-61
2022/03/07 22:07:50;;;;;;;11.93;7.10;;;;;;;;;;10531408;28;20106;-61
2022/03/07 22:12:50;;;;;;;15.65;7.22;;;;;;;;;;10531477;28;20468;-61
2022/03/07 22:17:51;;;;;;;11.00;6.90;;;;;;;;;;10531045;28;20028;-61
2022/03/07 22:22:51;;;;;;;14.30;7.18;;;;;;;;;;10531510;28;20994;-62
2022/03/07 22:27:52;;;;;;;13.53;7.33;;;;;;;;;;10531056;28;20035;-61
2022/03/07 22:32:52;;;;;;;16.35;8.02;;;;;;;;;;10527606;28;20845;-61
2022/03/07 22:37:52;;;;;;;15.38;7.88;;;;;;;;;;10528822;28;20379;-61
2022/03/07 22:42:53;;;;;;;14.38;7.35;;;;;;;;;;10528863;28;20104;-61
2022/03/07 22:47:53;;;;;;;17.77;7.38;;;;;;;;;;10529946;28;20446;-62
2022/03/07 22:52:54;;;;;;;15.33;7.83;;;;;;;;;;10531110;28;20035;-62
2022/03/07 22:57:54;;;;;;;15.43;6.95;;;;;;;;;;10530373;28;20499;-62
2022/03/07 23:02:55;;;;;;;17.23;7.68;;;;;;;;;;10532972;28;20071;-62
2022/03/07 23:07:55;;;;;;;18.87;7.43;;;;;;;;;;10532924;28;20111;-62
2022/03/07 23:12:55;;;;;;;14.67;7.40;;;;;;;;;;10537121;28;20498;-62
2022/03/07 23:17:56;;;;;;;11.10;6.63;;;;;;;;;;10537728;28;20795;-62
2022/03/07 23:22:56;;;;;;;10.07;6.95;;;;;;;;;;10538821;28;20020;-62
2022/03/07 23:27:57;;;;;;;11.37;6.93;;;;;;;;;;10536757;28;20031;-62
2022/03/07 23:32:57;;;;;;;11.75;7.30;;;;;;;;;;10537409;28;20577;-62
2022/03/07 23:37:58;;;;;;;11.45;6.40;;;;;;;;;;10536352;28;20027;-62
2022/03/07 23:42:58;;;;;;;14.98;6.35;;;;;;;;;;10537150;28;20107;-61
2022/03/07 23:47:59;;;;;;;11.55;6.68;;;;;;;;;;10537375;28;20028;-61
2022/03/07 23:53:00;;;;;;;10.45;6.95;;;;;;;;;;10537411;28;20039;-63
2022/03/07 23:58:01;;;;;;;10.73;6.65;;;;;;;;;;10536865;28;20070;-61
